Time;durP1;ratioP1;P1;durP2;ratioP2;P2;SDS_P1;SDS_P2;PMS_P1;PMS_P2;Temp;Humidity;BMP_temperature;BMP_pressure;BME280_temperature;BME280_humidity;BME280_pressure;Samples;Min_cycle;Max_cycle;Signal;HPM_P1;HPM_P2
2022/09/29 00:02:08;;;;;;;7.80;2.80;;;;;;;5.80;96.80;94082.53;4964825;28;20282;-81
2022/09/29 00:04:34;;;;;;;4.70;2.50;;;;;;;5.87;96.51;94084.34;4949043;28;20188;-81
2022/09/29 00:06:59;;;;;;;5.33;2.40;;;;;;;5.84;96.28;94079.50;4920875;29;20205;-81
2022/09/29 00:09:24;;;;;;;2.87;2.20;;;;;;;5.89;96.20;94082.41;4956991;28;20518;-81
2022/09/29 00:11:53;;;;;;;3.40;2.37;;;;;;;5.94;96.26;94082.78;4927830;29;20738;-83
2022/09/29 00:14:18;;;;;;;2.43;2.10;;;;;;;5.83;95.96;94083.03;4946718;29;20185;-84
2022/09/29 00:16:43;;;;;;;5.37;2.50;;;;;;;5.72;97.35;94079.91;4920444;29;20217;-84
2022/09/29 00:19:09;;;;;;;6.87;2.27;;;;;;;5.78;97.14;94084.47;4965160;28;20197;-83
2022/09/29 00:21:34;;;;;;;5.33;1.90;;;;;;;5.91;96.12;94080.50;4964286;28;20268;-82
2022/09/29 00:24:00;;;;;;;4.57;2.03;;;;;;;5.77;96.66;94070.78;4947303;29;20252;-84
2022/09/29 00:26:25;;;;;;;5.53;2.30;;;;;;;5.84;96.57;94071.78;4961356;28;20705;-80
2022/09/29 00:28:55;;;;;;;3.93;2.20;;;;;;;5.88;96.10;94069.69;4920822;29;20655;-81
2022/09/29 00:31:21;;;;;;;5.63;2.40;;;;;;;5.89;95.72;94063.56;4913524;29;20197;-81
2022/09/29 00:33:47;;;;;;;3.60;2.13;;;;;;;5.68;97.32;94066.53;4946094;29;20193;-82
2022/09/29 00:36:14;;;;;;;4.13;1.97;;;;;;;5.80;96.42;94065.31;4948172;29;20212;-82
2022/09/29 00:38:41;;;;;;;7.40;2.37;;;;;;;5.82;96.47;94065.94;4960763;28;20194;-83
2022/09/29 00:41:07;;;;;;;5.93;2.87;;;;;;;5.86;95.67;94071.63;4918088;29;20209;-82
2022/09/29 00:44:08;;;;;;;2.93;2.50;;;;;;;5.82;95.47;94062.56;4921306;29;20193;-81
2022/09/29 00:46:51;;;;;;;4.87;2.80;;;;;;;5.80;96.87;94067.06;4893168;29;20211;-82
2022/09/29 00:49:33;;;;;;;3.90;2.87;;;;;;;5.87;96.02;94068.06;4914765;29;20232;-82
2022/09/29 00:52:01;;;;;;;4.50;2.87;;;;;;;5.90;96.56;94062.59;4946329;29;20216;-82
2022/09/29 00:54:29;;;;;;;5.03;2.93;;;;;;;5.96;95.93;94062.81;4935806;29;20189;-82
2022/09/29 00:56:56;;;;;;;3.83;3.20;;;;;;;6.04;95.88;94056.91;4945525;29;20570;-82
2022/09/29 00:59:27;;;;;;;4.40;3.20;;;;;;;6.06;95.82;94057.53;4944629;29;20189;-82
2022/09/29 01:01:52;;;;;;;6.80;3.00;;;;;;;6.05;96.81;94052.53;4927030;29;20697;-82
2022/09/29 01:04:18;;;;;;;4.27;3.80;;;;;;;6.07;96.83;94060.91;4949885;29;20181;-82
2022/09/29 01:06:50;;;;;;;4.83;3.07;;;;;;;5.93;98.22;94052.03;4947998;29;20284;-81
2022/09/29 01:09:17;;;;;;;4.43;3.30;;;;;;;5.94;98.69;94058.78;4925345;29;20292;-81
2022/09/29 01:11:43;;;;;;;4.47;3.07;;;;;;;6.00;98.62;94059.94;4936509;29;20216;-83
2022/09/29 01:14:09;;;;;;;4.87;2.90;;;;;;;5.88;98.37;94055.03;4930842;29;20186;-82
2022/09/29 01:16:36;;;;;;;6.60;3.60;;;;;;;5.84;99.48;94050.34;4952154;29;20205;-83
2022/09/29 01:19:05;;;;;;;5.40;2.60;;;;;;;5.87;99.30;94053.41;4949692;29;20261;-83
2022/09/29 01:21:56;;;;;;;4.73;2.70;;;;;;;5.88;99.68;94049.88;4942416;29;20177;-84
2022/09/29 01:24:39;;;;;;;6.60;3.10;;;;;;;6.03;98.30;94057.88;4969037;28;20331;-83
2022/09/29 01:27:19;;;;;;;4.33;2.90;;;;;;;5.84;99.67;94051.16;4953386;29;20206;-83
2022/09/29 01:30:07;;;;;;;3.97;3.03;;;;;;;5.79;100.00;94055.97;4957820;29;20272;-84
2022/09/29 01:32:32;;;;;;;6.13;3.57;;;;;;;5.76;100.00;94051.13;4950903;29;20181;-83
2022/09/29 01:35:25;;;;;;;2.93;2.60;;;;;;;5.83;100.00;94053.88;4937144;29;20200;-84
2022/09/29 01:38:06;;;;;;;3.67;2.97;;;;;;;5.95;99.78;94055.25;4924561;29;20244;-82
2022/09/29 01:40:46;;;;;;;7.30;3.00;;;;;;;6.01;98.84;94053.81;4937025;29;20178;-82
2022/09/29 01:43:16;;;;;;;3.50;2.50;;;;;;;6.05;99.03;94057.69;4931564;29;20193;-82
2022/09/29 01:45:50;;;;;;;3.87;3.00;;;;;;;6.12;98.68;94059.50;4933001;29;20193;-83
2022/09/29 01:48:18;;;;;;;4.63;2.37;;;;;;;6.08;98.42;94052.22;4961656;28;20204;-83
2022/09/29 01:50:47;;;;;;;6.03;2.40;;;;;;;6.02;99.88;94053.66;4933104;29;20255;-82
2022/09/29 01:53:15;;;;;;;3.63;2.70;;;;;;;6.02;99.69;94063.97;4949837;29;20204;-82
2022/09/29 01:55:49;;;;;;;6.07;2.30;;;;;;;6.07;99.91;94063.50;4953405;29;20256;-81
2022/09/29 01:58:21;;;;;;;7.10;2.90;;;;;;;6.09;99.97;94061.56;4941341;29;20195;-82
2022/09/29 02:00:50;;;;;;;6.30;2.63;;;;;;;6.08;100.00;94071.06;4955462;29;20569;-83
2022/09/29 02:03:27;;;;;;;2.47;2.27;;;;;;;6.09;100.00;94067.53;4935653;29;20200;-82
2022/09/29 02:05:55;;;;;;;4.70;2.10;;;;;;;6.16;99.58;94062.56;4927402;29;20563;-82
2022/09/29 02:08:33;;;;;;;3.10;2.50;;;;;;;6.19;99.65;94068.22;4939660;29;20594;-83
2022/09/29 02:11:01;;;;;;;3.63;2.63;;;;;;;6.21;99.38;94066.28;4953512;29;20217;-83
2022/09/29 02:13:29;;;;;;;4.93;2.60;;;;;;;6.24;99.19;94062.59;4929869;29;20190;-83
2022/09/29 02:15:55;;;;;;;5.80;2.67;;;;;;;6.26;98.79;94068.38;4947487;29;21748;-83
2022/09/29 02:18:23;;;;;;;4.20;2.60;;;;;;;6.30;98.58;94059.38;4952741;28;20181;-82
2022/09/29 02:20:49;;;;;;;4.60;2.60;;;;;;;6.29;98.40;94062.94;4938993;29;20189;-83
2022/09/29 02:23:15;;;;;;;2.47;2.27;;;;;;;6.34;98.03;94062.44;4923637;29;20240;-83
2022/09/29 02:25:40;;;;;;;3.20;2.30;;;;;;;6.34;98.23;94059.88;4949452;28;20185;-83
2022/09/29 02:28:06;;;;;;;4.00;2.33;;;;;;;6.33;98.85;94059.06;4954294;29;20292;-83
2022/09/29 02:30:33;;;;;;;5.20;2.27;;;;;;;6.34;98.65;94062.44;4931064;29;20209;-82
2022/09/29 02:32:58;;;;;;;3.50;2.50;;;;;;;6.37;98.66;94059.56;4930573;29;20185;-83
2022/09/29 02:35:39;;;;;;;4.73;2.50;;;;;;;6.35;98.46;94061.47;4964825;28;20189;-82
2022/09/29 02:38:11;;;;;;;4.63;2.30;;;;;;;6.28;98.98;94066.47;4953881;29;20209;-82
2022/09/29 02:40:52;;;;;;;4.23;2.70;;;;;;;6.32;99.32;94060.03;4951821;29;20213;-83
2022/09/29 02:43:29;;;;;;;5.13;2.70;;;;;;;6.38;98.65;94063.75;4930610;29;20264;-83
2022/09/29 02:46:13;;;;;;;3.17;2.50;;;;;;;6.36;98.68;94060.50;4947633;29;20196;-82
2022/09/29 02:48:55;;;;;;;2.97;2.40;;;;;;;6.35;98.33;94051.16;4969583;28;20193;-83
2022/09/29 02:51:32;;;;;;;5.00;2.20;;;;;;;6.34;98.12;94050.34;4951095;29;20209;-82
2022/09/29 02:54:07;;;;;;;3.60;2.47;;;;;;;6.33;98.44;94058.25;4963433;28;20251;-83
2022/09/29 02:57:07;;;;;;;3.33;2.53;;;;;;;6.42;97.78;94054.72;4960922;28;20216;-82
2022/09/29 02:59:41;;;;;;;4.40;2.63;;;;;;;6.34;97.77;94055.50;4930247;29;20342;-81
2022/09/29 03:02:06;;;;;;;3.33;2.77;;;;;;;6.35;98.38;94056.31;4962179;28;20185;-81
2022/09/29 03:04:31;;;;;;;3.20;2.40;;;;;;;6.34;98.07;94055.50;4950099;29;20187;-82
2022/09/29 03:06:57;;;;;;;4.27;2.90;;;;;;;6.34;98.56;94055.50;4958480;28;20237;-82
2022/09/29 03:09:22;;;;;;;4.33;2.63;;;;;;;6.30;98.15;94054.22;4911917;29;20201;-81
2022/09/29 03:11:47;;;;;;;3.83;2.43;;;;;;;6.26;98.70;94050.34;4947761;29;20213;-80
2022/09/29 03:14:13;;;;;;;3.97;2.40;;;;;;;6.21;98.93;94058.56;4950626;28;20232;-80
2022/09/29 03:16:38;;;;;;;4.33;2.60;;;;;;;6.17;99.38;94053.84;4960653;28;20359;-81
2022/09/29 03:19:07;;;;;;;5.00;2.70;;;;;;;6.15;99.24;94050.63;4934091;29;20678;-82
2022/09/29 03:21:32;;;;;;;4.03;2.37;;;;;;;6.16;99.76;94047.91;4949409;29;20225;-81
2022/09/29 03:23:57;;;;;;;3.87;2.33;;;;;;;6.14;99.80;94046.44;4928795;29;20690;-81
2022/09/29 03:26:23;;;;;;;3.60;2.47;;;;;;;6.15;100.00;94043.72;4921043;29;20205;-80
2022/09/29 03:28:49;;;;;;;6.60;2.90;;;;;;;6.34;98.87;94039.25;4946896;29;20248;-83
2022/09/29 03:31:15;;;;;;;3.10;2.10;;;;;;;6.23;99.08;94043.72;4946039;29;20224;-82
2022/09/29 03:33:40;;;;;;;6.57;2.40;;;;;;;6.17;99.70;94041.78;4930291;29;20181;-80
2022/09/29 03:36:07;;;;;;;2.87;2.37;;;;;;;6.09;100.00;94034.03;4966119;28;20213;-81
2022/09/29 03:38:32;;;;;;;3.73;2.70;;;;;;;6.04;100.00;94030.31;4929316;29;20284;-81
2022/09/29 03:40:58;;;;;;;3.77;2.50;;;;;;;6.01;100.00;94033.19;4967210;28;20229;-82
2022/09/29 03:43:23;;;;;;;5.20;2.57;;;;;;;6.22;99.69;94046.47;4983075;28;20282;-83
2022/09/29 03:45:49;;;;;;;5.40;3.10;;;;;;;6.30;98.89;94037.97;4966289;28;20204;-81
2022/09/29 03:48:15;;;;;;;3.20;2.37;;;;;;;5.93;100.00;94034.81;4943967;29;20193;-81
2022/09/29 03:50:41;;;;;;;5.50;2.30;;;;;;;5.87;100.00;94034.59;4935276;29;20221;-81
2022/09/29 03:53:06;;;;;;;2.73;2.30;;;;;;;5.89;100.00;94030.88;4953403;29;20563;-80
2022/09/29 03:55:31;;;;;;;2.93;2.40;;;;;;;5.96;100.00;94034.47;4921300;29;20199;-80
2022/09/29 03:57:56;;;;;;;2.80;2.47;;;;;;;5.92;100.00;94035.78;4963748;28;20602;-81
2022/09/29 04:00:22;;;;;;;5.60;2.50;;;;;;;5.82;100.00;94035.03;4959360;28;20208;-82
2022/09/29 04:02:47;;;;;;;2.33;2.13;;;;;;;5.77;100.00;94042.44;4933856;29;20193;-82
2022/09/29 04:05:13;;;;;;;4.57;3.03;;;;;;;5.70;100.00;94038.84;4950861;29;20566;-82
2022/09/29 04:07:38;;;;;;;4.17;2.47;;;;;;;5.69;100.00;94039.81;4935043;29;20216;-84
2022/09/29 04:10:03;;;;;;;2.93;2.30;;;;;;;5.66;100.00;94040.94;4946471;29;20216;-82
2022/09/29 04:12:29;;;;;;;4.20;2.10;;;;;;;5.59;100.00;94039.13;4932534;29;20198;-82
2022/09/29 04:14:54;;;;;;;6.23;2.67;;;;;;;5.60;100.00;94038.19;4946990;29;20774;-82
2022/09/29 04:17:20;;;;;;;5.43;2.67;;;;;;;5.60;100.00;94041.56;4960264;28;20910;-82
2022/09/29 04:19:46;;;;;;;7.63;2.50;;;;;;;5.57;100.00;94041.06;4937072;29;20181;-82
2022/09/29 04:22:13;;;;;;;5.83;2.57;;;;;;;5.58;100.00;94040.09;4934769;29;20244;-82
2022/09/29 04:24:39;;;;;;;3.97;2.50;;;;;;;5.48;100.00;94036.81;4948703;29;20185;-82
2022/09/29 04:27:04;;;;;;;4.33;2.43;;;;;;;5.52;100.00;94040.72;4961899;28;20205;-82
2022/09/29 04:29:29;;;;;;;5.37;2.63;;;;;;;5.50;100.00;94040.88;4962198;28;20193;-82
2022/09/29 04:31:55;;;;;;;3.60;2.60;;;;;;;5.52;100.00;94043.28;4964421;28;20225;-82
2022/09/29 04:34:20;;;;;;;3.87;3.20;;;;;;;5.55;100.00;94040.41;4948142;29;20193;-83
2022/09/29 04:36:45;;;;;;;5.73;3.13;;;;;;;5.44;100.00;94038.09;4951056;29;20252;-83
2022/09/29 04:39:11;;;;;;;3.73;2.87;;;;;;;5.40;100.00;94040.97;4926950;29;20243;-81
2022/09/29 04:41:38;;;;;;;3.87;3.37;;;;;;;5.33;100.00;94039.16;4947002;29;20658;-82
2022/09/29 04:44:04;;;;;;;5.33;3.17;;;;;;;5.54;100.00;94038.78;4949084;29;20185;-82
2022/09/29 04:46:30;;;;;;;7.30;3.80;;;;;;;5.61;100.00;94039.78;4929672;29;20209;-84
2022/09/29 04:48:55;;;;;;;5.77;3.53;;;;;;;5.65;100.00;94038.50;4949226;28;20244;-82
2022/09/29 04:51:20;;;;;;;5.47;3.30;;;;;;;5.64;100.00;94032.53;4947789;29;20217;-81
2022/09/29 04:53:46;;;;;;;3.93;2.80;;;;;;;5.64;100.00;94031.75;4939884;29;20192;-79
2022/09/29 04:56:11;;;;;;;3.67;2.63;;;;;;;5.64;100.00;94032.53;4949452;29;20260;-82
2022/09/29 04:58:36;;;;;;;5.67;3.07;;;;;;;5.65;100.00;94043.66;4965498;28;20185;-82
2022/09/29 05:01:06;;;;;;;3.73;2.63;;;;;;;5.67;100.00;94047.72;4951141;29;20264;-83
2022/09/29 05:03:32;;;;;;;8.63;5.90;;;;;;;5.42;100.00;94053.69;4927804;29;20180;-81
2022/09/29 05:05:57;;;;;;;3.63;2.67;;;;;;;5.47;100.00;94054.03;4925924;29;20197;-81
2022/09/29 05:08:22;;;;;;;4.63;2.43;;;;;;;5.46;100.00;94055.00;4950979;29;20208;-81
2022/09/29 05:10:50;;;;;;;3.53;2.70;;;;;;;5.32;100.00;94056.38;4952903;29;20251;-82
2022/09/29 05:13:15;;;;;;;4.03;3.03;;;;;;;5.38;100.00;94057.53;4966231;28;20194;-81
2022/09/29 05:15:40;;;;;;;4.67;3.60;;;;;;;5.31;100.00;94056.53;4950892;29;20642;-81
2022/09/29 05:18:06;;;;;;;6.17;3.50;;;;;;;5.27;100.00;94053.44;4967206;28;20248;-81
2022/09/29 05:20:31;;;;;;;6.93;4.00;;;;;;;5.21;100.00;94053.22;4954807;29;20188;-81
2022/09/29 05:22:58;;;;;;;6.00;4.70;;;;;;;5.18;100.00;94068.97;4950919;29;20221;-80
2022/09/29 05:25:23;;;;;;;7.07;5.53;;;;;;;5.10;100.00;94067.16;4919848;29;20200;-80
2022/09/29 05:27:48;;;;;;;4.47;3.53;;;;;;;5.12;100.00;94065.22;4946551;29;20213;-81
2022/09/29 05:30:13;;;;;;;4.77;3.20;;;;;;;5.11;100.00;94071.34;4949422;29;20214;-81
2022/09/29 05:32:41;;;;;;;3.93;3.17;;;;;;;5.11;100.00;94066.19;4949545;29;20228;-81
2022/09/29 05:35:07;;;;;;;5.17;2.90;;;;;;;5.10;100.00;94077.44;4966830;28;20655;-81
2022/09/29 05:37:32;;;;;;;6.17;3.17;;;;;;;5.11;100.00;94073.91;4961980;28;20217;-82
2022/09/29 05:39:58;;;;;;;3.77;3.40;;;;;;;5.13;100.00;94073.78;4967140;29;20174;-82
2022/09/29 05:42:24;;;;;;;4.43;3.13;;;;;;;5.19;100.00;94083.47;4977117;28;20225;-83
2022/09/29 05:44:49;;;;;;;5.33;4.10;;;;;;;5.18;100.00;94087.81;4959451;29;20189;-81
2022/09/29 05:47:15;;;;;;;4.93;3.10;;;;;;;5.21;100.00;94092.66;4960616;28;20216;-82
2022/09/29 05:49:41;;;;;;;4.77;3.63;;;;;;;5.26;100.00;94080.13;4950416;29;20185;-81
2022/09/29 05:52:06;;;;;;;5.77;3.30;;;;;;;5.44;100.00;94082.66;4924183;29;20216;-81
2022/09/29 05:54:31;;;;;;;4.30;3.27;;;;;;;5.59;100.00;94076.00;4929787;29;20190;-81
2022/09/29 05:56:56;;;;;;;4.37;2.60;;;;;;;5.73;99.99;94078.94;4923163;29;20209;-81
2022/09/29 05:59:22;;;;;;;4.50;2.93;;;;;;;5.79;99.61;94074.00;4964613;28;20194;-82
2022/09/29 06:01:47;;;;;;;6.27;2.67;;;;;;;5.84;99.30;94074.34;4951239;28;20177;-82
2022/09/29 06:04:12;;;;;;;4.47;2.60;;;;;;;5.82;99.31;94072.88;4947376;29;20212;-82
2022/09/29 06:06:39;;;;;;;4.03;3.47;;;;;;;5.76;99.76;94070.94;4949309;29;20220;-81
2022/09/29 06:09:05;;;;;;;14.30;6.80;;;;;;;5.83;100.00;94070.16;4939314;29;20290;-82
2022/09/29 06:11:30;;;;;;;24.37;12.80;;;;;;;5.94;100.00;94062.19;4954808;29;20205;-81
2022/09/29 06:13:56;;;;;;;12.27;6.73;;;;;;;6.06;99.65;94073.00;4949677;29;20193;-81
2022/09/29 06:16:27;;;;;;;8.57;4.10;;;;;;;6.09;99.60;94077.03;4947718;29;20578;-81
2022/09/29 06:18:52;;;;;;;8.73;4.53;;;;;;;6.05;100.00;94081.69;4923669;29;20195;-82
2022/09/29 06:21:24;;;;;;;10.70;5.70;;;;;;;6.12;99.53;94082.69;4931439;29;20182;-82
2022/09/29 06:23:50;;;;;;;5.27;4.17;;;;;;;6.19;99.46;94094.00;4945295;29;20288;-83
2022/09/29 06:26:17;;;;;;;6.03;3.00;;;;;;;6.16;100.00;94099.44;4964896;28;20206;-82
2022/09/29 06:28:42;;;;;;;4.10;2.67;;;;;;;6.20;100.00;94097.38;4920917;29;20555;-81
2022/09/29 06:31:13;;;;;;;4.90;2.67;;;;;;;6.30;99.70;94103.22;4925058;29;20209;-81
2022/09/29 06:33:39;;;;;;;2.93;2.70;;;;;;;6.46;98.86;94103.25;4935376;29;20212;-82
2022/09/29 06:38:54;;;;;;;5.60;2.70;;;;;;;6.85;98.05;94113.00;4963246;28;20220;-79
2022/09/29 06:41:20;;;;;;;5.23;2.50;;;;;;;7.08;97.01;94111.41;4923116;29;20647;-81
2022/09/29 06:43:45;;;;;;;6.73;2.57;;;;;;;7.15;96.38;94106.38;4932087;29;20602;-80
2022/09/29 06:46:11;;;;;;;5.80;2.37;;;;;;;7.41;95.95;94106.19;4933335;29;20256;-81
2022/09/29 06:48:36;;;;;;;3.10;2.77;;;;;;;7.54;95.78;94103.94;4949877;29;20193;-81
2022/09/29 06:51:05;;;;;;;5.23;2.87;;;;;;;7.65;95.50;94108.75;4921026;29;20240;-83
2022/09/29 06:53:30;;;;;;;4.50;2.60;;;;;;;7.65;94.93;94106.16;4918795;29;20193;-82
2022/09/29 06:55:55;;;;;;;2.90;2.50;;;;;;;7.67;95.04;94111.16;4946100;29;20200;-82
2022/09/29 06:58:21;;;;;;;4.13;2.60;;;;;;;7.79;94.28;94103.91;4962600;28;20226;-83
2022/09/29 07:00:47;;;;;;;6.20;2.60;;;;;;;7.89;94.26;94109.69;4937660;29;20173;-82
2022/09/29 07:03:12;;;;;;;6.37;2.50;;;;;;;8.00;93.06;94111.91;4968086;28;20215;-83
2022/09/29 07:05:37;;;;;;;3.57;2.60;;;;;;;8.03;93.32;94106.38;4935663;29;20646;-82
2022/09/29 07:08:03;;;;;;;4.33;2.63;;;;;;;8.31;92.95;94111.16;4949591;29;20738;-82
2022/09/29 07:10:28;;;;;;;4.23;2.50;;;;;;;8.42;92.36;94111.59;4964020;28;20213;-81
2022/09/29 07:12:54;;;;;;;6.27;2.93;;;;;;;8.52;92.25;94108.81;4948280;28;20758;-81
2022/09/29 07:15:19;;;;;;;4.73;2.80;;;;;;;8.62;92.38;94117.16;4948478;29;21009;-81
2022/09/29 07:17:44;;;;;;;3.00;2.13;;;;;;;8.94;91.11;94110.19;4951739;29;20661;-81
2022/09/29 07:20:10;;;;;;;4.23;2.30;;;;;;;8.92;90.87;94112.09;4952772;29;20186;-81
2022/09/29 07:22:35;;;;;;;3.90;2.23;;;;;;;8.86;91.51;94107.63;4933384;29;20208;-81
2022/09/29 07:25:01;;;;;;;7.70;2.43;;;;;;;8.89;91.14;94112.47;4947084;29;20898;-81
2022/09/29 07:27:26;;;;;;;5.00;2.27;;;;;;;9.13;89.70;94120.06;4948122;29;20217;-81
2022/09/29 07:29:52;;;;;;;5.67;2.33;;;;;;;9.09;88.71;94119.59;4919831;29;20211;-82
2022/09/29 07:32:18;;;;;;;2.30;2.10;;;;;;;9.31;88.23;94110.22;4940639;29;20182;-80
2022/09/29 07:34:43;;;;;;;3.97;2.27;;;;;;;9.49;87.04;94115.06;4927496;29;20257;-81
2022/09/29 07:37:09;;;;;;;4.00;2.00;;;;;;;9.54;86.55;94114.53;4934968;29;20201;-80
2022/09/29 07:39:34;;;;;;;3.00;2.17;;;;;;;9.65;84.92;94116.72;4948215;29;20189;-79
2022/09/29 07:41:59;;;;;;;4.93;2.00;;;;;;;9.69;84.83;94122.34;4924269;29;20199;-80
2022/09/29 07:44:25;;;;;;;3.70;1.90;;;;;;;9.68;83.15;94118.13;4929683;29;20189;-80
2022/09/29 07:46:50;;;;;;;6.63;2.00;;;;;;;9.52;84.53;94112.13;4923712;29;20734;-80
2022/09/29 07:49:15;;;;;;;4.87;2.13;;;;;;;9.47;84.38;94117.03;4922516;29;20185;-83
2022/09/29 07:51:41;;;;;;;2.83;1.63;;;;;;;9.43;84.81;94120.13;4934718;29;20293;-86
2022/09/29 07:54:06;;;;;;;2.57;1.70;;;;;;;9.46;83.59;94123.22;4931682;29;20279;-83
2022/09/29 07:56:32;;;;;;;4.57;1.93;;;;;;;9.56;81.53;94128.13;4936552;29;20212;-83
2022/09/29 07:58:57;;;;;;;5.10;1.83;;;;;;;9.79;79.65;94126.28;4936459;29;20669;-84
2022/09/29 08:01:22;;;;;;;5.00;1.77;;;;;;;9.61;80.93;94128.41;4929122;29;20194;-84
2022/09/29 08:03:53;;;;;;;3.77;1.83;;;;;;;9.65;80.81;94127.09;4930913;29;20195;-84
2022/09/29 08:06:19;;;;;;;4.90;2.00;;;;;;;9.81;79.37;94129.53;4920642;29;20729;-85
2022/09/29 08:08:44;;;;;;;2.10;1.50;;;;;;;9.87;78.86;94133.19;4934209;29;20248;-81
2022/09/29 08:11:12;;;;;;;3.30;1.63;;;;;;;10.00;78.54;94127.38;4933835;29;20213;-81
2022/09/29 08:13:37;;;;;;;4.10;1.43;;;;;;;10.02;77.74;94135.78;4948453;29;20462;-81
2022/09/29 08:16:05;;;;;;;3.20;1.43;;;;;;;10.03;78.76;94133.00;4962004;28;20251;-82
2022/09/29 08:18:31;;;;;;;2.77;1.77;;;;;;;10.12;78.19;94136.31;4934738;29;20304;-81
2022/09/29 08:20:57;;;;;;;5.03;1.87;;;;;;;10.10;77.79;94135.72;4929824;29;20186;-81
2022/09/29 08:23:22;;;;;;;5.97;1.90;;;;;;;10.11;78.40;94138.13;4946577;28;20197;-81
2022/09/29 08:25:49;;;;;;;5.80;1.63;;;;;;;10.25;78.49;94140.91;4950440;29;20654;-82
2022/09/29 08:28:15;;;;;;;5.13;1.80;;;;;;;10.23;78.82;94143.69;4946618;28;20579;-82
2022/09/29 08:30:40;;;;;;;1.90;1.73;;;;;;;10.07;78.24;94154.19;4961553;28;20319;-83
2022/09/29 08:33:11;;;;;;;3.63;1.73;;;;;;;10.38;76.63;94152.28;4930723;29;20193;-82
2022/09/29 08:35:36;;;;;;;2.97;1.70;;;;;;;10.38;77.23;94154.06;4930893;29;20193;-81
2022/09/29 08:38:02;;;;;;;3.33;1.93;;;;;;;10.43;78.00;94160.34;4946422;29;20669;-82
2022/09/29 08:40:28;;;;;;;3.33;2.03;;;;;;;10.52;76.42;94158.44;4961911;28;20675;-82
2022/09/29 08:43:06;;;;;;;2.57;1.63;;;;;;;10.56;75.53;94169.25;4930563;29;20189;-82
2022/09/29 08:45:36;;;;;;;3.20;2.23;;;;;;;10.66;76.63;94167.19;4961684;28;20185;-81
2022/09/29 08:48:10;;;;;;;2.63;2.10;;;;;;;10.82;77.35;94164.38;4928439;29;20217;-81
2022/09/29 08:50:41;;;;;;;2.13;1.93;;;;;;;10.89;75.18;94165.28;4948031;29;20213;-81
2022/09/29 08:53:10;;;;;;;6.70;2.50;;;;;;;10.67;77.40;94171.38;4943658;29;20303;-81
2022/09/29 08:55:57;;;;;;;4.43;1.93;;;;;;;10.94;76.79;94177.69;4927927;29;20209;-81
2022/09/29 08:58:23;;;;;;;4.20;1.90;;;;;;;11.02;74.73;94170.59;4958721;28;20228;-81
2022/09/29 09:01:02;;;;;;;5.83;2.33;;;;;;;11.04;75.31;94179.03;4918356;29;20201;-82
2022/09/29 09:03:50;;;;;;;4.40;2.23;;;;;;;10.99;74.87;94181.38;4934235;29;20200;-82
2022/09/29 09:06:27;;;;;;;3.63;2.00;;;;;;;10.73;75.71;94183.66;4972771;28;20221;-82
2022/09/29 09:09:10;;;;;;;3.37;2.00;;;;;;;10.54;77.02;94181.63;4946092;29;20264;-82
2022/09/29 09:11:50;;;;;;;4.20;2.00;;;;;;;10.47;76.57;94187.53;4932371;29;20221;-82
2022/09/29 09:14:30;;;;;;;2.47;1.80;;;;;;;10.36;77.15;94187.97;4928417;29;20194;-81
2022/09/29 09:17:17;;;;;;;3.53;2.13;;;;;;;10.35;77.87;94182.97;4916605;29;20312;-82
2022/09/29 09:20:35;;;;;;;3.37;2.17;;;;;;;10.55;78.21;94196.22;4964834;28;20193;-81
2022/09/29 09:23:12;;;;;;;3.43;2.30;;;;;;;10.74;78.04;94195.66;4875361;29;20203;-82
2022/09/29 09:25:44;;;;;;;4.07;1.90;;;;;;;10.82;77.15;94198.16;4915530;29;20205;-82
2022/09/29 09:28:15;;;;;;;3.77;2.17;;;;;;;10.89;77.23;94204.22;4964659;28;20193;-81
2022/09/29 09:30:54;;;;;;;2.70;1.70;;;;;;;11.00;75.45;94201.16;4975972;28;20221;-82
2022/09/29 09:33:57;;;;;;;2.23;1.80;;;;;;;11.16;75.67;94207.13;4944181;29;20661;-84
2022/09/29 09:36:39;;;;;;;3.57;2.00;;;;;;;11.19;75.32;94206.75;4965554;28;20209;-83
2022/09/29 09:39:28;;;;;;;3.83;1.90;;;;;;;10.98;74.90;94205.72;4958081;29;20184;-84
2022/09/29 09:41:55;;;;;;;3.00;2.63;;;;;;;11.19;74.47;94207.56;4922411;29;20192;-82
2022/09/29 09:44:25;;;;;;;4.07;1.80;;;;;;;11.30;71.73;94208.84;4952099;29;20341;-81
2022/09/29 09:46:55;;;;;;;2.67;2.10;;;;;;;11.28;72.57;94210.84;4924804;29;20209;-83
2022/09/29 09:49:28;;;;;;;3.33;1.90;;;;;;;11.50;72.86;94199.47;4932575;29;20189;-81
2022/09/29 09:52:10;;;;;;;2.40;1.90;;;;;;;11.60;71.79;94207.75;4938853;29;20242;-83
2022/09/29 09:55:10;;;;;;;4.57;2.30;;;;;;;11.66;72.34;94208.84;4946690;29;20200;-82
2022/09/29 09:58:26;;;;;;;5.60;2.10;;;;;;;11.79;71.10;94200.31;4863729;29;20279;-82
2022/09/29 10:00:57;;;;;;;3.60;2.20;;;;;;;11.75;71.86;94201.69;4888397;29;20215;-82
2022/09/29 10:03:23;;;;;;;3.17;2.17;;;;;;;11.78;71.11;94204.72;4846257;29;20231;-81
2022/09/29 10:05:49;;;;;;;5.40;2.03;;;;;;;11.89;71.93;94198.22;4900979;29;20326;-82
2022/09/29 10:08:30;;;;;;;3.97;2.03;;;;;;;12.02;71.02;94200.16;4905858;29;20215;-82
2022/09/29 10:10:56;;;;;;;3.43;1.83;;;;;;;12.25;69.90;94197.28;4873207;29;20325;-82
2022/09/29 10:13:24;;;;;;;2.93;2.07;;;;;;;12.16;68.74;94194.81;4871533;29;20592;-83
2022/09/29 10:16:33;;;;;;;4.60;1.90;;;;;;;12.09;71.86;94204.38;4863946;29;20196;-81
2022/09/29 10:18:58;;;;;;;10.17;6.60;;;;;;;11.99;72.34;94205.72;4878686;29;20200;-81
2022/09/29 10:21:30;;;;;;;3.77;2.10;;;;;;;12.29;70.75;94207.13;4891173;29;20652;-81
2022/09/29 10:23:56;;;;;;;4.50;1.83;;;;;;;12.34;70.10;94203.94;4876222;29;20196;-82
2022/09/29 10:26:33;;;;;;;3.57;1.93;;;;;;;12.86;68.34;94213.03;4860861;29;20215;-82
2022/09/29 10:29:22;;;;;;;6.03;2.10;;;;;;;12.59;67.28;94206.91;4871630;29;20570;-82
2022/09/29 10:31:58;;;;;;;3.30;1.83;;;;;;;12.87;67.30;94209.44;4866975;29;20206;-84
2022/09/29 10:34:24;;;;;;;3.50;2.13;;;;;;;12.67;68.54;94204.16;4892371;29;20259;-84
2022/09/29 10:36:55;;;;;;;3.67;2.03;;;;;;;12.83;66.75;94211.63;4936642;29;20212;-83
2022/09/29 10:39:42;;;;;;;3.53;2.30;;;;;;;12.76;67.93;94210.81;4936729;29;20204;-83
2022/09/29 10:42:22;;;;;;;4.13;2.33;;;;;;;12.96;66.00;94213.50;4932873;29;20182;-82
2022/09/29 10:45:00;;;;;;;4.80;2.17;;;;;;;12.65;68.54;94209.56;4933966;29;20193;-83
2022/09/29 10:47:26;;;;;;;2.77;2.00;;;;;;;12.74;67.58;94216.22;4932762;29;20713;-81
2022/09/29 10:50:16;;;;;;;3.73;1.90;;;;;;;12.95;65.86;94220.50;4935882;29;20197;-82
2022/09/29 10:52:43;;;;;;;4.77;1.83;;;;;;;12.85;67.16;94219.25;4948612;29;21074;-82
2022/09/29 10:55:16;;;;;;;3.77;1.63;;;;;;;13.07;65.82;94217.31;4933587;29;20221;-82
2022/09/29 10:57:44;;;;;;;3.70;2.20;;;;;;;13.23;66.43;94217.81;4917744;29;20327;-84
2022/09/29 11:00:25;;;;;;;2.13;1.80;;;;;;;13.19;64.59;94216.63;4934795;29;20248;-82
2022/09/29 11:02:50;;;;;;;2.43;1.80;;;;;;;13.35;64.67;94214.66;4936689;29;20204;-81
2022/09/29 11:05:19;;;;;;;2.53;1.87;;;;;;;13.40;62.26;94204.44;4918202;29;20181;-82
2022/09/29 11:07:49;;;;;;;6.20;1.93;;;;;;;13.25;64.91;94215.00;4976985;28;20581;-82
2022/09/29 11:10:35;;;;;;;3.53;1.90;;;;;;;13.34;64.93;94219.06;4966862;28;20617;-83
2022/09/29 11:13:19;;;;;;;3.83;1.93;;;;;;;13.04;66.10;94213.31;4937027;29;20214;-83
2022/09/29 11:15:44;;;;;;;5.43;3.43;;;;;;;13.15;65.40;94211.94;4966188;28;20224;-82
2022/09/29 11:18:18;;;;;;;3.50;1.67;;;;;;;13.30;65.23;94213.44;4916256;29;20245;-82
2022/09/29 11:20:47;;;;;;;3.43;1.73;;;;;;;13.30;63.57;94217.84;4917536;29;20185;-84
2022/09/29 11:23:31;;;;;;;2.70;1.47;;;;;;;13.09;63.53;94225.78;4934234;29;20201;-82
2022/09/29 11:26:06;;;;;;;4.23;2.07;;;;;;;12.85;64.93;94225.28;4933489;29;20181;-83
2022/09/29 11:28:34;;;;;;;1.87;1.67;;;;;;;12.85;65.96;94225.28;4953110;29;20670;-82
2022/09/29 11:31:12;;;;;;;2.73;2.30;;;;;;;13.17;65.02;94223.81;4939553;29;20213;-81
2022/09/29 11:33:58;;;;;;;3.00;1.30;;;;;;;13.22;63.62;94226.66;4933359;29;20197;-82
2022/09/29 11:36:51;;;;;;;2.47;1.30;;;;;;;12.96;64.14;94224.72;4943847;29;20269;-82
2022/09/29 11:39:38;;;;;;;1.93;1.60;;;;;;;13.13;65.08;94229.59;4936020;29;20203;-81
2022/09/29 11:42:37;;;;;;;2.23;1.57;;;;;;;13.24;64.24;94232.47;4935527;29;20281;-81
2022/09/29 11:45:07;;;;;;;2.20;1.60;;;;;;;13.08;64.94;94235.41;4932490;29;20556;-81
2022/09/29 11:47:39;;;;;;;2.10;1.50;;;;;;;12.96;65.13;94231.72;4919832;29;20216;-83
2022/09/29 11:50:26;;;;;;;4.23;1.90;;;;;;;12.99;65.44;94232.16;4960066;28;20247;-81
2022/09/29 11:53:30;;;;;;;3.90;1.90;;;;;;;13.11;63.99;94234.19;4933845;29;20280;-81
2022/09/29 11:56:02;;;;;;;2.33;1.57;;;;;;;12.95;65.95;94233.53;4937578;29;20196;-83